createdAt,value
2023-02-09T00:00:26.662Z,29.38
2023-02-09T00:02:53.600Z,25.67
2023-02-09T00:05:20.597Z,30.17
2023-02-09T00:07:47.441Z,31.80
2023-02-09T00:10:14.255Z,28.70
2023-02-09T00:12:59.564Z,33.28
2023-02-09T00:15:26.352Z,32.90
2023-02-09T00:17:53.130Z,29.27
2023-02-09T00:20:20.146Z,31.52
2023-02-09T00:22:46.977Z,30.52
2023-02-09T00:25:13.842Z,33.28
2023-02-09T00:27:40.663Z,31.75
2023-02-09T00:30:08.039Z,33.17
2023-02-09T00:32:34.878Z,28.75
2023-02-09T00:35:01.764Z,30.52
2023-02-09T00:37:28.575Z,31.63
2023-02-09T00:39:55.477Z,33.63
2023-02-09T00:42:22.339Z,28.80
2023-02-09T00:44:49.152Z,32.10
2023-02-09T00:47:16.071Z,30.48
2023-02-09T00:49:42.891Z,30.30
2023-02-09T00:52:10.212Z,32.80
2023-02-09T00:54:37.257Z,30.15
2023-02-09T00:57:05.562Z,27.55
2023-02-09T00:59:34.516Z,30.88
2023-02-09T01:02:02.123Z,29.98
2023-02-09T01:04:29.264Z,29.55
2023-02-09T01:06:56.232Z,29.73
2023-02-09T01:09:23.238Z,30.50
2023-02-09T01:11:50.486Z,27.17
2023-02-09T01:14:17.425Z,29.67
2023-02-09T01:16:44.314Z,32.17
2023-02-09T01:19:13.230Z,29.13
2023-02-09T01:21:40.556Z,28.58
2023-02-09T01:24:07.633Z,29.42
2023-02-09T01:26:34.677Z,33.05
2023-02-09T01:29:01.534Z,27.20
2023-02-09T01:31:31.738Z,26.63
2023-02-09T01:34:00.788Z,29.00
2023-02-09T01:36:28.730Z,25.63
2023-02-09T01:38:57.116Z,25.75
2023-02-09T01:41:24.314Z,25.30
2023-02-09T01:43:59.419Z,30.92
2023-02-09T01:46:29.428Z,21.63
2023-02-09T01:49:18.280Z,24.02
2023-02-09T01:51:48.993Z,25.08
2023-02-09T01:54:20.901Z,22.63
2023-02-09T01:56:51.984Z,18.33
2023-02-09T01:59:20.110Z,22.00
2023-02-09T02:01:47.031Z,20.23
2023-02-09T02:04:14.466Z,20.83
2023-02-09T02:06:41.450Z,19.85
2023-02-09T02:09:13.959Z,20.50
2023-02-09T02:11:44.194Z,20.27
2023-02-09T02:14:30.318Z,17.88
2023-02-09T02:17:29.589Z,17.20
2023-02-09T02:20:11.125Z,20.27
2023-02-09T02:23:11.665Z,18.88
2023-02-09T02:25:56.475Z,17.00
2023-02-09T02:28:48.147Z,17.88
2023-02-09T02:31:26.692Z,20.02
2023-02-09T02:33:58.628Z,20.27
2023-02-09T02:36:35.599Z,16.38
2023-02-09T02:39:29.960Z,17.88
2023-02-09T02:42:37.433Z,17.83
2023-02-09T02:45:32.914Z,18.13
2023-02-09T02:50:54.210Z,20.33
2023-02-09T02:55:52.425Z,16.88
2023-02-09T02:58:22.566Z,16.25
2023-02-09T03:00:52.994Z,18.13
2023-02-09T03:03:23.050Z,17.02
2023-02-09T03:05:51.788Z,17.25
2023-02-09T03:08:18.582Z,19.08
2023-02-09T03:10:46.239Z,18.75
2023-02-09T03:13:34.257Z,17.80
2023-02-09T03:16:27.456Z,17.95
2023-02-09T03:19:14.520Z,17.75
2023-02-09T03:21:44.493Z,19.27
2023-02-09T03:24:26.839Z,15.05
2023-02-09T03:27:23.017Z,16.27
2023-02-09T03:29:54.656Z,19.70
2023-02-09T03:32:23.334Z,16.60
2023-02-09T03:34:50.447Z,18.27
2023-02-09T03:37:18.139Z,20.25
2023-02-09T03:39:45.064Z,18.40
2023-02-09T03:42:11.883Z,16.02
2023-02-09T03:44:38.962Z,18.77
2023-02-09T03:47:08.377Z,16.20
2023-02-09T03:49:39.931Z,18.85
2023-02-09T03:52:09.837Z,18.13
2023-02-09T03:54:37.035Z,28.80
2023-02-09T03:57:04.344Z,18.40
2023-02-09T03:59:35.458Z,16.77
2023-02-09T04:02:02.876Z,19.65
2023-02-09T04:04:29.721Z,21.63
2023-02-09T04:06:56.806Z,20.95
2023-02-09T04:09:24.370Z,18.08
2023-02-09T04:11:51.547Z,25.95
2023-02-09T04:14:18.703Z,19.58
2023-02-09T04:16:46.107Z,20.00
2023-02-09T04:19:13.377Z,20.00
2023-02-09T04:21:40.850Z,17.88
2023-02-09T04:24:08.495Z,22.90
2023-02-09T04:26:35.473Z,18.38
2023-02-09T04:29:02.325Z,16.50
2023-02-09T04:31:31.305Z,19.27
2023-02-09T04:33:58.177Z,21.55
2023-02-09T04:36:25.140Z,19.75
2023-02-09T04:38:52.028Z,18.88
2023-02-09T04:41:18.860Z,19.08
2023-02-09T04:43:48.771Z,18.20
2023-02-09T04:46:17.315Z,19.00
2023-02-09T04:48:44.680Z,22.02
2023-02-09T04:51:11.693Z,16.92
2023-02-09T04:53:39.880Z,20.20
2023-02-09T04:56:07.204Z,18.23
2023-02-09T04:58:52.528Z,20.80
2023-02-09T05:01:23.024Z,17.08
2023-02-09T05:03:50.143Z,18.80
2023-02-09T05:06:17.609Z,18.27
2023-02-09T05:08:44.506Z,19.80
2023-02-09T05:11:12.115Z,19.50
2023-02-09T05:13:39.664Z,21.33
2023-02-09T05:16:08.454Z,20.27
2023-02-09T05:18:36.267Z,21.55
2023-02-09T05:21:04.001Z,20.10
2023-02-09T05:23:31.134Z,23.25
2023-02-09T05:25:58.114Z,19.23
2023-02-09T05:28:25.445Z,18.40
2023-02-09T05:30:53.942Z,20.40
2023-02-09T05:33:21.919Z,19.52
2023-02-09T05:35:50.394Z,21.08
2023-02-09T05:38:17.258Z,27.65
2023-02-09T05:40:45.201Z,18.05
2023-02-09T05:43:12.451Z,19.98
2023-02-09T05:45:39.608Z,19.88
2023-02-09T05:48:07.342Z,20.88
2023-02-09T05:50:35.833Z,20.75
2023-02-09T05:53:02.692Z,21.55
2023-02-09T05:55:29.565Z,21.60
2023-02-09T05:57:56.526Z,19.70
2023-02-09T06:00:25.115Z,19.67
2023-02-09T06:02:52.130Z,23.08
2023-02-09T06:05:21.058Z,22.02
2023-02-09T06:07:48.707Z,21.15
2023-02-09T06:10:16.661Z,19.52
2023-02-09T06:12:43.602Z,17.85
2023-02-09T06:15:11.016Z,24.65
2023-02-09T06:17:37.855Z,17.90
2023-02-09T06:20:05.408Z,19.30
2023-02-09T06:22:32.298Z,21.25
2023-02-09T06:24:59.211Z,20.85
2023-02-09T06:27:26.194Z,22.95
2023-02-09T06:29:53.102Z,17.50
2023-02-09T06:32:20.104Z,21.83
2023-02-09T06:34:47.124Z,21.02
2023-02-09T06:37:14.053Z,21.27
2023-02-09T06:39:41.033Z,20.13
2023-02-09T06:42:08.002Z,24.92
2023-02-09T06:44:34.841Z,23.10
2023-02-09T06:47:01.714Z,28.45
2023-02-09T06:49:28.602Z,23.30
2023-02-09T06:51:55.659Z,26.73
2023-02-09T06:54:22.849Z,23.30
2023-02-09T06:56:49.697Z,22.42
2023-02-09T06:59:16.512Z,21.45
2023-02-09T07:01:43.547Z,23.17
2023-02-09T07:04:10.558Z,27.45
2023-02-09T07:06:37.436Z,23.73
2023-02-09T07:09:04.392Z,18.77
2023-02-09T07:11:31.418Z,20.92
2023-02-09T07:13:58.252Z,23.30
2023-02-09T07:16:25.097Z,26.73
2023-02-09T07:18:51.990Z,21.52
2023-02-09T07:21:21.412Z,24.75
2023-02-09T07:23:48.847Z,33.15
2023-02-09T07:26:17.413Z,31.30
2023-02-09T07:28:44.511Z,21.85
2023-02-09T07:31:13.789Z,25.73
2023-02-09T07:33:41.180Z,21.27
2023-02-09T07:36:11.374Z,22.90
2023-02-09T07:38:39.453Z,20.23
2023-02-09T07:41:08.368Z,20.80
2023-02-09T07:43:35.187Z,27.38
2023-02-09T07:46:07.139Z,22.63
2023-02-09T07:48:34.508Z,22.35
2023-02-09T07:51:01.765Z,24.63
2023-02-09T07:53:28.793Z,20.30
2023-02-09T07:55:56.257Z,20.95
2023-02-09T07:58:23.459Z,21.98
2023-02-09T08:00:51.533Z,25.35
2023-02-09T08:03:20.975Z,24.98
2023-02-09T08:06:00.484Z,24.95
2023-02-09T08:08:27.813Z,24.85
2023-02-09T08:11:00.845Z,24.98
2023-02-09T08:13:31.171Z,23.95
2023-02-09T08:16:04.732Z,24.02
2023-02-09T08:18:45.022Z,20.00
2023-02-09T08:21:14.488Z,27.10
2023-02-09T08:23:43.984Z,22.15
2023-02-09T08:26:13.643Z,21.27
2023-02-09T08:28:44.885Z,23.67
2023-02-09T08:31:17.582Z,22.08
2023-02-09T08:33:46.402Z,22.67
2023-02-09T08:36:13.940Z,32.20
2023-02-09T08:38:41.427Z,23.35
2023-02-09T08:41:10.354Z,62.80
2023-02-09T08:43:37.185Z,23.50
2023-02-09T08:46:10.072Z,24.08
2023-02-09T08:48:39.368Z,24.42
2023-02-09T08:51:07.434Z,48.00
2023-02-09T08:53:35.310Z,52.03
2023-02-09T08:56:02.118Z,29.90
2023-02-09T08:58:30.214Z,37.75
2023-02-09T09:00:57.535Z,43.25
2023-02-09T09:03:29.910Z,41.10
2023-02-09T09:06:02.215Z,27.40
2023-02-09T09:08:29.644Z,26.90
2023-02-09T09:10:57.126Z,30.83
2023-02-09T09:13:24.941Z,20.42
2023-02-09T09:15:52.745Z,22.20
2023-02-09T09:18:19.761Z,21.40
2023-02-09T09:20:46.731Z,28.52
2023-02-09T09:23:14.170Z,20.83
2023-02-09T09:25:42.361Z,22.17
2023-02-09T09:28:09.733Z,24.85
2023-02-09T09:30:37.450Z,23.73
2023-02-09T09:33:04.790Z,27.55
2023-02-09T09:35:31.945Z,23.50
2023-02-09T09:38:01.817Z,23.30
2023-02-09T09:40:32.094Z,23.45
2023-02-09T09:43:05.079Z,28.45
2023-02-09T09:45:35.439Z,25.25
2023-02-09T09:48:02.858Z,23.90
2023-02-09T09:50:42.991Z,27.90
2023-02-09T09:53:33.157Z,22.13
2023-02-09T09:56:03.940Z,21.20
2023-02-09T09:58:32.458Z,27.55
2023-02-09T10:00:59.580Z,23.08
2023-02-09T10:03:27.145Z,25.98
2023-02-09T10:05:59.776Z,26.90
2023-02-09T10:08:39.447Z,24.48
2023-02-09T10:11:12.731Z,26.02
2023-02-09T10:13:54.588Z,30.33
2023-02-09T10:16:27.262Z,30.05
2023-02-09T10:19:22.142Z,22.33
2023-02-09T10:21:49.393Z,28.73
2023-02-09T10:24:29.555Z,23.77
2023-02-09T10:27:08.327Z,28.90
2023-02-09T10:29:36.570Z,24.95
2023-02-09T10:32:05.788Z,27.55
2023-02-09T10:34:38.664Z,25.75
2023-02-09T10:37:22.012Z,28.42
2023-02-09T10:40:12.362Z,24.80
2023-02-09T10:42:51.471Z,28.20
2023-02-09T10:45:37.147Z,24.92
2023-02-09T10:48:13.092Z,25.80
2023-02-09T10:51:07.364Z,23.27
2023-02-09T10:53:38.735Z,30.75
2023-02-09T10:56:24.517Z,26.33
2023-02-09T10:58:52.874Z,24.40
2023-02-09T11:01:26.109Z,29.38
2023-02-09T11:04:17.402Z,24.45
2023-02-09T11:06:52.299Z,26.55
2023-02-09T11:09:28.657Z,29.23
2023-02-09T11:11:56.365Z,28.60
2023-02-09T11:14:23.810Z,36.45
2023-02-09T11:16:56.564Z,32.70
2023-02-09T11:19:35.438Z,34.80
2023-02-09T11:22:17.858Z,32.22
2023-02-09T11:25:04.773Z,29.23
2023-02-09T11:27:37.868Z,26.92
2023-02-09T11:30:30.973Z,25.50
2023-02-09T11:33:09.884Z,30.73
2023-02-09T11:35:56.630Z,32.15
2023-02-09T11:38:40.096Z,33.22
2023-02-09T11:41:31.110Z,29.70
2023-02-09T11:44:01.338Z,31.27
2023-02-09T11:46:31.468Z,29.05
2023-02-09T11:49:04.382Z,30.02
2023-02-09T11:51:37.305Z,28.65
2023-02-09T11:54:17.237Z,30.85
2023-02-09T11:56:51.151Z,29.20
2023-02-09T11:59:30.134Z,31.13
2023-02-09T12:02:18.408Z,32.70
2023-02-09T12:04:57.103Z,27.75
2023-02-09T12:07:48.761Z,27.92
2023-02-09T12:10:28.986Z,31.65
2023-02-09T12:13:06.028Z,35.22
2023-02-09T12:15:38.355Z,29.75
2023-02-09T12:18:18.928Z,28.85
2023-02-09T12:20:56.303Z,29.52
2023-02-09T12:23:43.455Z,35.78
2023-02-09T12:26:16.308Z,29.25
2023-02-09T12:29:03.574Z,33.22
2023-02-09T12:31:51.342Z,39.00
2023-02-09T12:34:27.605Z,29.42
2023-02-09T12:37:16.686Z,33.17
2023-02-09T12:40:20.301Z,37.45
2023-02-09T12:43:07.351Z,31.65
2023-02-09T12:45:41.186Z,29.92
2023-02-09T12:48:07.917Z,34.13
2023-02-09T12:50:43.830Z,33.67
2023-02-09T12:53:22.869Z,33.85
2023-02-09T12:56:11.059Z,34.05
2023-02-09T12:58:54.249Z,35.97
2023-02-09T13:01:21.224Z,35.78
2023-02-09T13:04:03.114Z,34.33
2023-02-09T13:06:46.924Z,34.25
2023-02-09T13:09:20.881Z,34.60
2023-02-09T13:11:51.600Z,34.28
2023-02-09T13:14:22.344Z,37.33
2023-02-09T13:17:04.217Z,34.78
2023-02-09T13:20:07.193Z,45.83
2023-02-09T13:22:46.127Z,31.10
2023-02-09T13:25:39.586Z,34.28
2023-02-09T13:28:18.865Z,34.90
2023-02-09T13:30:47.309Z,33.75
2023-02-09T13:33:17.097Z,38.00
2023-02-09T13:36:11.140Z,36.97
2023-02-09T13:38:43.281Z,35.80
2023-02-09T13:41:31.015Z,36.03
2023-02-09T13:43:58.145Z,31.42
2023-02-09T13:46:34.295Z,32.35
2023-02-09T13:51:38.853Z,33.78
2023-02-09T13:54:05.880Z,34.45
2023-02-09T13:56:34.774Z,40.35
2023-02-09T13:59:01.921Z,39.15
2023-02-09T14:01:33.064Z,35.05
2023-02-09T14:04:05.421Z,33.33
2023-02-09T14:06:52.355Z,47.10
2023-02-09T14:09:29.837Z,34.60
2023-02-09T14:12:12.050Z,40.80
2023-02-09T14:15:01.745Z,32.08
2023-02-09T14:17:35.332Z,35.70
2023-02-09T14:20:02.473Z,37.17
2023-02-09T14:22:37.917Z,38.53
2023-02-09T14:25:13.596Z,34.03
2023-02-09T14:27:41.183Z,39.85
2023-02-09T14:30:21.295Z,37.50
2023-02-09T14:32:53.558Z,37.35
2023-02-09T14:35:26.991Z,35.80
2023-02-09T14:37:56.646Z,36.00
2023-02-09T14:40:34.690Z,39.40
2023-02-09T14:43:08.974Z,36.13
2023-02-09T14:45:40.520Z,37.17
2023-02-09T14:48:26.372Z,36.35
2023-02-09T14:53:23.376Z,38.20
2023-02-09T14:55:50.309Z,36.60
2023-02-09T14:58:26.431Z,38.10
2023-02-09T15:03:21.949Z,35.35
2023-02-09T15:05:51.344Z,35.95
2023-02-09T15:08:21.779Z,33.92
2023-02-09T15:11:00.771Z,41.65
2023-02-09T15:13:32.676Z,38.97
2023-02-09T15:15:59.580Z,38.22
2023-02-09T15:18:27.800Z,40.42
2023-02-09T15:20:54.947Z,37.92
2023-02-09T15:23:21.778Z,42.35
2023-02-09T15:25:48.905Z,39.17
2023-02-09T15:28:28.591Z,36.97
2023-02-09T15:30:56.904Z,37.45
2023-02-09T15:33:25.382Z,38.00
2023-02-09T15:35:52.539Z,39.67
2023-02-09T15:38:19.941Z,38.42
2023-02-09T15:41:07.743Z,40.90
2023-02-09T15:43:54.044Z,39.60
2023-02-09T15:46:39.984Z,38.28
2023-02-09T15:51:37.040Z,37.60
2023-02-09T15:54:09.209Z,45.85
2023-02-09T15:56:37.323Z,40.63
2023-02-09T15:59:05.615Z,42.55
2023-02-09T16:01:34.613Z,40.72
2023-02-09T16:04:13.382Z,38.53
2023-02-09T16:06:45.398Z,42.80
2023-02-09T16:09:19.326Z,39.85
2023-02-09T16:11:48.507Z,43.88
2023-02-09T16:14:18.200Z,49.13
2023-02-09T16:16:45.841Z,42.92
2023-02-09T16:19:13.713Z,42.03
2023-02-09T16:21:44.244Z,47.28
2023-02-09T16:24:33.444Z,39.47
2023-02-09T16:27:02.018Z,45.78
2023-02-09T16:29:28.964Z,47.42
2023-02-09T16:31:55.965Z,42.63
2023-02-09T16:34:22.854Z,46.20
2023-02-09T16:36:50.040Z,49.70
2023-02-09T16:39:19.567Z,42.58
2023-02-09T16:41:47.200Z,46.30
2023-02-09T16:44:21.973Z,45.30
2023-02-09T16:46:52.541Z,45.00
2023-02-09T16:49:36.885Z,56.65
2023-02-09T16:52:19.264Z,47.47
2023-02-09T16:54:49.351Z,49.33
2023-02-09T16:57:19.809Z,44.60
2023-02-09T16:59:46.734Z,50.35
2023-02-09T17:02:36.849Z,43.95
2023-02-09T17:05:23.147Z,53.67
2023-02-09T17:07:55.532Z,55.85
2023-02-09T17:10:25.837Z,49.05
2023-02-09T17:12:53.874Z,46.67
2023-02-09T17:15:30.146Z,47.65
2023-02-09T17:18:05.836Z,46.80
2023-02-09T17:20:44.069Z,46.60
2023-02-09T17:23:16.142Z,50.83
2023-02-09T17:25:44.228Z,54.70
2023-02-09T17:28:11.850Z,48.28
2023-02-09T17:30:40.052Z,47.58
2023-02-09T17:33:10.777Z,52.65
2023-02-09T17:38:35.708Z,50.20
2023-02-09T17:41:05.759Z,48.55
2023-02-09T17:43:32.774Z,53.38
2023-02-09T17:45:59.784Z,46.92
2023-02-09T17:48:26.763Z,51.70
2023-02-09T17:50:57.942Z,52.80
2023-02-09T17:53:27.628Z,48.20
2023-02-09T17:55:56.406Z,49.83
2023-02-09T17:58:24.453Z,47.88
2023-02-09T18:00:53.432Z,53.42
2023-02-09T18:03:22.932Z,46.70
2023-02-09T18:05:58.673Z,52.50
2023-02-09T18:08:27.299Z,48.13
2023-02-09T18:10:57.940Z,51.40
2023-02-09T18:13:27.066Z,50.88
2023-02-09T18:15:54.734Z,52.25
2023-02-09T18:18:24.154Z,52.35
2023-02-09T18:20:51.355Z,53.30
2023-02-09T18:23:18.171Z,50.55
2023-02-09T18:25:47.600Z,53.38
2023-02-09T18:28:15.394Z,53.75
2023-02-09T18:30:43.064Z,50.03
2023-02-09T18:33:10.639Z,52.78
2023-02-09T18:35:41.565Z,54.83
2023-02-09T18:38:10.409Z,51.10
2023-02-09T18:40:39.056Z,48.60
2023-02-09T18:43:07.379Z,60.30
2023-02-09T18:45:34.423Z,56.35
2023-02-09T18:48:01.540Z,54.85
2023-02-09T18:50:31.078Z,53.42
2023-02-09T18:53:00.827Z,52.83
2023-02-09T18:55:30.771Z,54.13
2023-02-09T18:58:01.523Z,60.00
2023-02-09T19:00:29.139Z,57.50
2023-02-09T19:03:00.142Z,49.33
2023-02-09T19:05:30.162Z,57.67
2023-02-09T19:07:59.551Z,60.47
2023-02-09T19:10:26.873Z,54.80
2023-02-09T19:12:54.376Z,51.83
2023-02-09T19:15:22.541Z,53.45
2023-02-09T19:17:49.467Z,52.88
2023-02-09T19:20:19.773Z,54.53
2023-02-09T19:22:47.853Z,54.25
2023-02-09T19:25:15.328Z,56.60
2023-02-09T19:27:42.527Z,50.40
2023-02-09T19:30:14.045Z,53.65
2023-02-09T19:32:41.057Z,57.80
2023-02-09T19:35:08.423Z,55.47
2023-02-09T19:37:36.320Z,59.92
2023-02-09T19:40:21.118Z,56.67
2023-02-09T19:42:48.700Z,58.28
2023-02-09T19:45:16.030Z,55.60
2023-02-09T19:47:42.986Z,55.45
2023-02-09T19:50:10.689Z,55.10
2023-02-09T19:52:38.842Z,54.97
2023-02-09T19:55:06.288Z,54.92
2023-02-09T19:57:33.086Z,57.08
2023-02-09T19:59:59.972Z,54.70
2023-02-09T20:02:26.987Z,54.97
2023-02-09T20:04:53.898Z,60.85
2023-02-09T20:07:20.727Z,59.65
2023-02-09T20:09:47.674Z,59.17
2023-02-09T20:12:14.493Z,61.03
2023-02-09T20:14:41.323Z,64.78
2023-02-09T20:17:08.523Z,59.95
2023-02-09T20:19:39.284Z,63.15
2023-02-09T20:22:06.163Z,57.13
2023-02-09T20:24:33.218Z,62.65
2023-02-09T20:27:00.124Z,59.22
2023-02-09T20:29:27.002Z,63.42
2023-02-09T20:31:54.123Z,57.40
2023-02-09T20:34:21.332Z,59.13
2023-02-09T20:36:48.661Z,52.10
2023-02-09T20:39:16.524Z,56.42
2023-02-09T20:42:06.393Z,56.58
2023-02-09T20:44:52.739Z,55.05
2023-02-09T20:47:19.714Z,62.72
2023-02-09T20:49:46.564Z,60.72
2023-02-09T20:52:13.498Z,63.35
2023-02-09T20:54:40.514Z,60.88
2023-02-09T20:57:07.415Z,67.35
2023-02-09T20:59:35.015Z,62.10
2023-02-09T21:02:01.932Z,62.25
2023-02-09T21:04:30.186Z,60.72
2023-02-09T21:06:58.231Z,62.25
2023-02-09T21:09:26.637Z,61.30
2023-02-09T21:11:54.529Z,63.92
2023-02-09T21:14:32.548Z,63.15
2023-02-09T21:17:06.138Z,59.80
2023-02-09T21:19:34.526Z,66.65
2023-02-09T21:22:01.356Z,72.93
2023-02-09T21:24:28.291Z,63.83
2023-02-09T21:26:55.310Z,65.65
2023-02-09T21:29:22.196Z,60.00
2023-02-09T21:31:49.112Z,64.30
2023-02-09T21:34:17.057Z,67.75
2023-02-09T21:36:44.410Z,67.53
2023-02-09T21:39:11.280Z,64.18
2023-02-09T21:41:56.682Z,61.25
2023-02-09T21:44:23.538Z,61.30
2023-02-09T21:46:50.634Z,61.72
2023-02-09T21:49:17.536Z,63.55
2023-02-09T21:51:44.734Z,67.35
2023-02-09T21:54:14.485Z,65.20
2023-02-09T21:56:41.510Z,66.18
2023-02-09T21:59:08.457Z,67.05
2023-02-09T22:01:35.484Z,68.00
2023-02-09T22:04:02.376Z,62.13
2023-02-09T22:06:30.617Z,65.90
2023-02-09T22:09:00.248Z,67.53
2023-02-09T22:11:27.162Z,65.78
2023-02-09T22:13:54.128Z,61.47
2023-02-09T22:16:22.544Z,66.45
2023-02-09T22:18:50.046Z,62.03
2023-02-09T22:21:17.889Z,67.05
2023-02-09T22:23:44.793Z,69.43
2023-02-09T22:26:13.932Z,67.68
2023-02-09T22:28:41.564Z,70.57
2023-02-09T22:31:14.156Z,70.57
2023-02-09T22:33:41.219Z,69.72
2023-02-09T22:36:11.487Z,72.10
2023-02-09T22:38:38.664Z,69.30
2023-02-09T22:41:07.894Z,76.63
2023-02-09T22:43:35.205Z,77.57
2023-02-09T22:46:02.067Z,75.93
2023-02-09T22:48:28.892Z,65.75
2023-02-09T22:50:55.728Z,71.85
2023-02-09T22:53:22.579Z,74.95
2023-02-09T22:55:49.761Z,77.85
2023-02-09T22:58:16.624Z,76.72
2023-02-09T23:00:43.507Z,76.65
2023-02-09T23:03:10.357Z,80.05
2023-02-09T23:05:37.195Z,77.80
2023-02-09T23:08:04.204Z,78.57
2023-02-09T23:10:31.081Z,76.88
2023-02-09T23:12:57.940Z,74.78
2023-02-09T23:15:24.781Z,78.30
2023-02-09T23:17:51.745Z,76.88
2023-02-09T23:20:18.960Z,79.28
2023-02-09T23:22:46.515Z,84.40
2023-02-09T23:25:13.521Z,95.32
2023-02-09T23:27:40.641Z,86.57
2023-02-09T23:30:08.387Z,81.70
2023-02-09T23:32:35.315Z,87.60
2023-02-09T23:35:02.179Z,81.63
2023-02-09T23:37:37.656Z,92.18
2023-02-09T23:40:05.147Z,100.15
2023-02-09T23:42:32.032Z,87.72
2023-02-09T23:44:58.806Z,90.75
2023-02-09T23:47:25.600Z,86.55
2023-02-09T23:49:52.413Z,89.47
2023-02-09T23:52:19.223Z,79.07
2023-02-09T23:54:46.050Z,91.50
2023-02-09T23:57:12.984Z,86.72
2023-02-09T23:59:39.814Z,84.75
